sensor_id;sensor_type;location;lat;lon;timestamp;P1;durP1;ratioP1;P2;durP2;ratioP2
24261;SDS011;12385;51.412;5.540;2023-03-31T00:01:37;14.63;;;1.75;;
24261;SDS011;12385;51.412;5.540;2023-03-31T00:04:09;11.20;;;2.28;;
24261;SDS011;12385;51.412;5.540;2023-03-31T00:06:37;7.97;;;1.75;;
24261;SDS011;12385;51.412;5.540;2023-03-31T00:09:09;9.90;;;1.77;;
24261;SDS011;12385;51.412;5.540;2023-03-31T00:11:37;9.77;;;1.70;;
24261;SDS011;12385;51.412;5.540;2023-03-31T00:14:03;14.50;;;2.17;;
24261;SDS011;12385;51.412;5.540;2023-03-31T00:16:34;9.82;;;2.00;;
24261;SDS011;12385;51.412;5.540;2023-03-31T00:19:01;13.93;;;2.38;;
24261;SDS011;12385;51.412;5.540;2023-03-31T00:21:28;11.55;;;1.70;;
24261;SDS011;12385;51.412;5.540;2023-03-31T00:26:24;8.07;;;1.77;;
24261;SDS011;12385;51.412;5.540;2023-03-31T00:28:51;10.23;;;2.13;;
24261;SDS011;12385;51.412;5.540;2023-03-31T00:31:17;11.63;;;1.85;;
24261;SDS011;12385;51.412;5.540;2023-03-31T00:33:43;9.77;;;1.67;;
24261;SDS011;12385;51.412;5.540;2023-03-31T00:36:09;10.75;;;1.80;;
24261;SDS011;12385;51.412;5.540;2023-03-31T00:38:34;12.38;;;1.83;;
24261;SDS011;12385;51.412;5.540;2023-03-31T00:41:00;10.80;;;1.80;;
24261;SDS011;12385;51.412;5.540;2023-03-31T00:43:34;9.82;;;1.83;;
24261;SDS011;12385;51.412;5.540;2023-03-31T00:46:17;13.27;;;2.08;;
24261;SDS011;12385;51.412;5.540;2023-03-31T00:48:48;10.23;;;1.80;;
24261;SDS011;12385;51.412;5.540;2023-03-31T00:51:20;12.55;;;2.00;;
24261;SDS011;12385;51.412;5.540;2023-03-31T00:53:48;15.65;;;2.10;;
24261;SDS011;12385;51.412;5.540;2023-03-31T00:56:23;12.20;;;2.20;;
24261;SDS011;12385;51.412;5.540;2023-03-31T00:58:52;13.83;;;1.97;;
24261;SDS011;12385;51.412;5.540;2023-03-31T01:01:22;12.75;;;1.95;;
24261;SDS011;12385;51.412;5.540;2023-03-31T01:03:48;14.38;;;2.10;;
24261;SDS011;12385;51.412;5.540;2023-03-31T01:06:16;12.82;;;2.00;;
24261;SDS011;12385;51.412;5.540;2023-03-31T01:08:44;17.20;;;2.45;;
24261;SDS011;12385;51.412;5.540;2023-03-31T01:11:15;14.13;;;2.17;;
24261;SDS011;12385;51.412;5.540;2023-03-31T01:13:46;18.42;;;2.22;;
24261;SDS011;12385;51.412;5.540;2023-03-31T01:16:15;13.53;;;2.37;;
24261;SDS011;12385;51.412;5.540;2023-03-31T01:18:42;15.68;;;2.25;;
24261;SDS011;12385;51.412;5.540;2023-03-31T01:23:51;14.35;;;2.72;;
24261;SDS011;12385;51.412;5.540;2023-03-31T01:26:45;14.35;;;2.58;;
24261;SDS011;12385;51.412;5.540;2023-03-31T01:32:33;16.65;;;2.33;;
24261;SDS011;12385;51.412;5.540;2023-03-31T01:38:26;15.98;;;2.10;;
24261;SDS011;12385;51.412;5.540;2023-03-31T01:43:45;20.23;;;2.47;;
24261;SDS011;12385;51.412;5.540;2023-03-31T01:46:35;15.25;;;2.80;;
24261;SDS011;12385;51.412;5.540;2023-03-31T01:52:10;20.90;;;3.13;;
24261;SDS011;12385;51.412;5.540;2023-03-31T01:57:34;24.52;;;3.03;;
24261;SDS011;12385;51.412;5.540;2023-03-31T02:00:05;16.35;;;2.95;;
24261;SDS011;12385;51.412;5.540;2023-03-31T02:05:19;19.40;;;3.28;;
24261;SDS011;12385;51.412;5.540;2023-03-31T02:07:54;20.77;;;3.33;;
24261;SDS011;12385;51.412;5.540;2023-03-31T02:10:22;18.42;;;3.30;;
24261;SDS011;12385;51.412;5.540;2023-03-31T02:12:51;20.35;;;3.28;;
24261;SDS011;12385;51.412;5.540;2023-03-31T02:15:25;26.33;;;3.53;;
24261;SDS011;12385;51.412;5.540;2023-03-31T02:17:55;20.13;;;3.20;;
24261;SDS011;12385;51.412;5.540;2023-03-31T02:20:23;16.10;;;3.10;;
24261;SDS011;12385;51.412;5.540;2023-03-31T02:22:52;21.23;;;3.50;;
24261;SDS011;12385;51.412;5.540;2023-03-31T02:25:21;23.55;;;3.10;;
24261;SDS011;12385;51.412;5.540;2023-03-31T02:27:55;27.52;;;3.80;;
24261;SDS011;12385;51.412;5.540;2023-03-31T02:30:25;23.10;;;3.75;;
24261;SDS011;12385;51.412;5.540;2023-03-31T02:32:57;25.10;;;3.63;;
24261;SDS011;12385;51.412;5.540;2023-03-31T02:35:23;21.50;;;3.53;;
24261;SDS011;12385;51.412;5.540;2023-03-31T02:37:49;22.30;;;3.63;;
24261;SDS011;12385;51.412;5.540;2023-03-31T02:40:17;25.50;;;3.42;;
24261;SDS011;12385;51.412;5.540;2023-03-31T02:42:45;25.00;;;3.38;;
24261;SDS011;12385;51.412;5.540;2023-03-31T02:48:05;21.85;;;3.00;;
24261;SDS011;12385;51.412;5.540;2023-03-31T02:50:40;21.35;;;3.22;;
24261;SDS011;12385;51.412;5.540;2023-03-31T02:55:53;20.13;;;3.03;;
24261;SDS011;12385;51.412;5.540;2023-03-31T03:04:01;19.75;;;3.00;;
24261;SDS011;12385;51.412;5.540;2023-03-31T03:06:35;25.23;;;3.35;;
24261;SDS011;12385;51.412;5.540;2023-03-31T03:12:14;19.15;;;3.38;;
24261;SDS011;12385;51.412;5.540;2023-03-31T03:14:54;21.05;;;2.85;;
24261;SDS011;12385;51.412;5.540;2023-03-31T03:17:40;17.90;;;3.40;;
24261;SDS011;12385;51.412;5.540;2023-03-31T03:20:10;18.25;;;2.90;;
24261;SDS011;12385;51.412;5.540;2023-03-31T03:22:37;19.17;;;2.53;;
24261;SDS011;12385;51.412;5.540;2023-03-31T03:25:04;17.67;;;2.58;;
24261;SDS011;12385;51.412;5.540;2023-03-31T03:27:34;19.00;;;2.90;;
24261;SDS011;12385;51.412;5.540;2023-03-31T03:30:01;14.00;;;2.50;;
24261;SDS011;12385;51.412;5.540;2023-03-31T03:32:28;15.60;;;2.60;;
24261;SDS011;12385;51.412;5.540;2023-03-31T03:34:55;18.90;;;2.60;;
24261;SDS011;12385;51.412;5.540;2023-03-31T03:37:20;14.23;;;2.30;;
24261;SDS011;12385;51.412;5.540;2023-03-31T03:39:46;16.20;;;2.60;;
24261;SDS011;12385;51.412;5.540;2023-03-31T03:42:12;21.33;;;2.80;;
24261;SDS011;12385;51.412;5.540;2023-03-31T03:44:37;20.23;;;2.35;;
24261;SDS011;12385;51.412;5.540;2023-03-31T03:47:03;17.90;;;2.47;;
24261;SDS011;12385;51.412;5.540;2023-03-31T03:49:29;20.20;;;2.47;;
24261;SDS011;12385;51.412;5.540;2023-03-31T03:51:54;18.33;;;2.47;;
24261;SDS011;12385;51.412;5.540;2023-03-31T03:54:20;16.05;;;2.67;;
24261;SDS011;12385;51.412;5.540;2023-03-31T03:56:46;19.42;;;2.70;;
24261;SDS011;12385;51.412;5.540;2023-03-31T03:59:12;17.95;;;3.03;;
24261;SDS011;12385;51.412;5.540;2023-03-31T04:01:37;15.25;;;2.45;;
24261;SDS011;12385;51.412;5.540;2023-03-31T04:04:03;19.88;;;2.00;;
24261;SDS011;12385;51.412;5.540;2023-03-31T04:06:29;16.95;;;2.30;;
24261;SDS011;12385;51.412;5.540;2023-03-31T04:08:55;16.63;;;2.25;;
24261;SDS011;12385;51.412;5.540;2023-03-31T04:11:20;15.10;;;2.25;;
24261;SDS011;12385;51.412;5.540;2023-03-31T04:13:47;15.65;;;2.15;;
24261;SDS011;12385;51.412;5.540;2023-03-31T04:16:14;13.90;;;2.00;;
24261;SDS011;12385;51.412;5.540;2023-03-31T04:18:40;13.40;;;2.20;;
24261;SDS011;12385;51.412;5.540;2023-03-31T04:21:07;17.00;;;2.83;;
24261;SDS011;12385;51.412;5.540;2023-03-31T04:23:36;14.65;;;2.20;;
24261;SDS011;12385;51.412;5.540;2023-03-31T04:26:07;12.20;;;2.88;;
24261;SDS011;12385;51.412;5.540;2023-03-31T04:28:37;12.15;;;2.00;;
24261;SDS011;12385;51.412;5.540;2023-03-31T04:31:07;12.50;;;2.00;;
24261;SDS011;12385;51.412;5.540;2023-03-31T04:33:34;14.05;;;1.90;;
24261;SDS011;12385;51.412;5.540;2023-03-31T04:36:03;14.80;;;2.50;;
24261;SDS011;12385;51.412;5.540;2023-03-31T04:38:41;11.20;;;1.97;;
24261;SDS011;12385;51.412;5.540;2023-03-31T04:41:11;13.82;;;2.17;;
24261;SDS011;12385;51.412;5.540;2023-03-31T04:43:37;11.18;;;2.35;;
24261;SDS011;12385;51.412;5.540;2023-03-31T04:46:03;15.85;;;1.95;;
24261;SDS011;12385;51.412;5.540;2023-03-31T04:48:29;10.43;;;1.75;;
24261;SDS011;12385;51.412;5.540;2023-03-31T04:50:54;12.02;;;1.95;;
24261;SDS011;12385;51.412;5.540;2023-03-31T04:53:20;15.02;;;1.98;;
24261;SDS011;12385;51.412;5.540;2023-03-31T04:55:47;10.02;;;1.95;;
24261;SDS011;12385;51.412;5.540;2023-03-31T04:58:13;12.68;;;1.80;;
24261;SDS011;12385;51.412;5.540;2023-03-31T05:00:39;12.32;;;1.90;;
24261;SDS011;12385;51.412;5.540;2023-03-31T05:03:05;13.90;;;2.13;;
24261;SDS011;12385;51.412;5.540;2023-03-31T05:05:31;11.68;;;2.03;;
24261;SDS011;12385;51.412;5.540;2023-03-31T05:07:57;8.52;;;1.63;;
24261;SDS011;12385;51.412;5.540;2023-03-31T05:10:23;14.27;;;2.33;;
24261;SDS011;12385;51.412;5.540;2023-03-31T05:12:49;16.27;;;2.10;;
24261;SDS011;12385;51.412;5.540;2023-03-31T05:15:14;12.95;;;2.10;;
24261;SDS011;12385;51.412;5.540;2023-03-31T05:17:40;13.07;;;1.85;;
24261;SDS011;12385;51.412;5.540;2023-03-31T05:20:06;10.88;;;1.60;;
24261;SDS011;12385;51.412;5.540;2023-03-31T05:22:38;9.98;;;1.70;;
24261;SDS011;12385;51.412;5.540;2023-03-31T05:25:05;8.77;;;1.88;;
24261;SDS011;12385;51.412;5.540;2023-03-31T05:27:32;12.52;;;2.03;;
24261;SDS011;12385;51.412;5.540;2023-03-31T05:30:01;12.77;;;2.20;;
24261;SDS011;12385;51.412;5.540;2023-03-31T05:32:28;11.10;;;1.75;;
24261;SDS011;12385;51.412;5.540;2023-03-31T05:34:54;8.88;;;1.88;;
24261;SDS011;12385;51.412;5.540;2023-03-31T05:37:24;20.42;;;2.38;;
24261;SDS011;12385;51.412;5.540;2023-03-31T05:39:50;9.90;;;1.80;;
24261;SDS011;12385;51.412;5.540;2023-03-31T05:42:16;9.95;;;2.00;;
24261;SDS011;12385;51.412;5.540;2023-03-31T05:44:43;11.25;;;2.10;;
24261;SDS011;12385;51.412;5.540;2023-03-31T05:47:09;13.90;;;1.80;;
24261;SDS011;12385;51.412;5.540;2023-03-31T05:49:35;12.98;;;1.88;;
24261;SDS011;12385;51.412;5.540;2023-03-31T05:52:02;13.02;;;2.03;;
24261;SDS011;12385;51.412;5.540;2023-03-31T05:54:28;14.88;;;2.22;;
24261;SDS011;12385;51.412;5.540;2023-03-31T05:56:54;9.93;;;1.98;;
24261;SDS011;12385;51.412;5.540;2023-03-31T05:59:20;11.38;;;2.10;;
24261;SDS011;12385;51.412;5.540;2023-03-31T06:01:46;10.75;;;1.75;;
24261;SDS011;12385;51.412;5.540;2023-03-31T06:04:11;15.57;;;2.58;;
24261;SDS011;12385;51.412;5.540;2023-03-31T06:06:37;14.13;;;2.45;;
24261;SDS011;12385;51.412;5.540;2023-03-31T06:09:03;13.50;;;1.98;;
24261;SDS011;12385;51.412;5.540;2023-03-31T06:11:29;12.20;;;1.98;;
24261;SDS011;12385;51.412;5.540;2023-03-31T06:13:54;12.40;;;2.17;;
24261;SDS011;12385;51.412;5.540;2023-03-31T06:16:20;13.90;;;2.53;;
24261;SDS011;12385;51.412;5.540;2023-03-31T06:18:46;13.75;;;2.30;;
24261;SDS011;12385;51.412;5.540;2023-03-31T06:21:12;13.98;;;2.50;;
24261;SDS011;12385;51.412;5.540;2023-03-31T06:23:40;15.80;;;2.85;;
24261;SDS011;12385;51.412;5.540;2023-03-31T06:26:10;13.38;;;2.55;;
24261;SDS011;12385;51.412;5.540;2023-03-31T06:28:44;11.30;;;2.40;;
24261;SDS011;12385;51.412;5.540;2023-03-31T06:31:11;15.75;;;2.55;;
24261;SDS011;12385;51.412;5.540;2023-03-31T06:33:39;11.45;;;2.28;;
24261;SDS011;12385;51.412;5.540;2023-03-31T06:36:06;15.48;;;2.45;;
24261;SDS011;12385;51.412;5.540;2023-03-31T06:38:33;13.40;;;2.47;;
24261;SDS011;12385;51.412;5.540;2023-03-31T06:41:01;17.38;;;2.80;;
24261;SDS011;12385;51.412;5.540;2023-03-31T06:43:26;18.48;;;2.92;;
24261;SDS011;12385;51.412;5.540;2023-03-31T06:45:52;11.70;;;2.47;;
24261;SDS011;12385;51.412;5.540;2023-03-31T06:48:18;14.57;;;2.95;;
24261;SDS011;12385;51.412;5.540;2023-03-31T06:50:44;11.77;;;2.58;;
24261;SDS011;12385;51.412;5.540;2023-03-31T06:53:11;20.95;;;3.05;;
24261;SDS011;12385;51.412;5.540;2023-03-31T06:55:37;16.98;;;2.85;;
24261;SDS011;12385;51.412;5.540;2023-03-31T06:58:03;19.80;;;2.75;;
24261;SDS011;12385;51.412;5.540;2023-03-31T07:00:29;18.35;;;3.20;;
24261;SDS011;12385;51.412;5.540;2023-03-31T07:02:55;20.02;;;3.25;;
24261;SDS011;12385;51.412;5.540;2023-03-31T07:05:21;22.00;;;2.58;;
24261;SDS011;12385;51.412;5.540;2023-03-31T07:07:53;15.90;;;2.90;;
24261;SDS011;12385;51.412;5.540;2023-03-31T07:10:20;20.17;;;3.45;;
24261;SDS011;12385;51.412;5.540;2023-03-31T07:12:47;17.45;;;3.40;;
24261;SDS011;12385;51.412;5.540;2023-03-31T07:15:13;17.30;;;3.28;;
24261;SDS011;12385;51.412;5.540;2023-03-31T07:17:38;18.17;;;3.20;;
24261;SDS011;12385;51.412;5.540;2023-03-31T07:20:10;15.73;;;2.60;;
24261;SDS011;12385;51.412;5.540;2023-03-31T07:22:38;18.73;;;2.72;;
24261;SDS011;12385;51.412;5.540;2023-03-31T07:25:07;20.40;;;2.90;;
24261;SDS011;12385;51.412;5.540;2023-03-31T07:27:34;19.55;;;3.05;;
24261;SDS011;12385;51.412;5.540;2023-03-31T07:30:00;19.02;;;3.10;;
24261;SDS011;12385;51.412;5.540;2023-03-31T07:32:26;16.30;;;2.97;;
24261;SDS011;12385;51.412;5.540;2023-03-31T07:34:51;15.25;;;2.90;;
24261;SDS011;12385;51.412;5.540;2023-03-31T07:37:17;17.23;;;2.83;;
24261;SDS011;12385;51.412;5.540;2023-03-31T07:39:42;23.90;;;3.35;;
24261;SDS011;12385;51.412;5.540;2023-03-31T07:42:08;18.60;;;3.05;;
24261;SDS011;12385;51.412;5.540;2023-03-31T07:44:34;21.20;;;3.92;;
24261;SDS011;12385;51.412;5.540;2023-03-31T07:47:01;15.25;;;3.00;;
24261;SDS011;12385;51.412;5.540;2023-03-31T07:49:28;19.85;;;3.15;;
24261;SDS011;12385;51.412;5.540;2023-03-31T07:51:54;19.98;;;3.42;;
24261;SDS011;12385;51.412;5.540;2023-03-31T07:54:20;17.95;;;3.03;;
24261;SDS011;12385;51.412;5.540;2023-03-31T07:56:46;18.30;;;2.95;;
24261;SDS011;12385;51.412;5.540;2023-03-31T07:59:12;18.60;;;3.15;;
24261;SDS011;12385;51.412;5.540;2023-03-31T08:01:38;20.92;;;3.13;;
24261;SDS011;12385;51.412;5.540;2023-03-31T08:04:04;19.33;;;3.08;;
24261;SDS011;12385;51.412;5.540;2023-03-31T08:06:30;21.80;;;3.00;;
24261;SDS011;12385;51.412;5.540;2023-03-31T08:08:56;18.80;;;3.03;;
24261;SDS011;12385;51.412;5.540;2023-03-31T08:11:23;15.45;;;3.00;;
24261;SDS011;12385;51.412;5.540;2023-03-31T08:13:50;22.10;;;3.25;;
24261;SDS011;12385;51.412;5.540;2023-03-31T08:16:16;16.58;;;3.13;;
24261;SDS011;12385;51.412;5.540;2023-03-31T08:18:42;20.33;;;2.80;;
24261;SDS011;12385;51.412;5.540;2023-03-31T08:21:07;22.33;;;3.30;;
24261;SDS011;12385;51.412;5.540;2023-03-31T08:23:36;17.42;;;3.05;;
24261;SDS011;12385;51.412;5.540;2023-03-31T08:28:38;18.85;;;3.20;;
24261;SDS011;12385;51.412;5.540;2023-03-31T08:31:05;22.55;;;3.40;;
24261;SDS011;12385;51.412;5.540;2023-03-31T08:33:32;17.50;;;3.00;;
24261;SDS011;12385;51.412;5.540;2023-03-31T08:36:04;20.70;;;3.33;;
24261;SDS011;12385;51.412;5.540;2023-03-31T08:38:33;20.27;;;3.38;;
24261;SDS011;12385;51.412;5.540;2023-03-31T08:41:01;20.27;;;3.55;;
24261;SDS011;12385;51.412;5.540;2023-03-31T08:43:39;18.98;;;3.17;;
24261;SDS011;12385;51.412;5.540;2023-03-31T08:46:09;23.43;;;3.40;;
24261;SDS011;12385;51.412;5.540;2023-03-31T08:48:41;20.73;;;3.60;;
24261;SDS011;12385;51.412;5.540;2023-03-31T08:51:20;21.98;;;3.40;;
24261;SDS011;12385;51.412;5.540;2023-03-31T08:54:05;17.23;;;3.80;;
24261;SDS011;12385;51.412;5.540;2023-03-31T08:56:39;21.42;;;3.25;;
24261;SDS011;12385;51.412;5.540;2023-03-31T09:04:18;18.15;;;3.05;;
24261;SDS011;12385;51.412;5.540;2023-03-31T09:12:19;16.58;;;3.35;;
24261;SDS011;12385;51.412;5.540;2023-03-31T09:14:49;22.98;;;3.70;;
24261;SDS011;12385;51.412;5.540;2023-03-31T09:17:33;25.35;;;3.80;;
24261;SDS011;12385;51.412;5.540;2023-03-31T09:20:06;16.65;;;3.17;;
24261;SDS011;12385;51.412;5.540;2023-03-31T09:22:39;18.10;;;3.22;;
24261;SDS011;12385;51.412;5.540;2023-03-31T09:25:45;26.45;;;3.78;;
24261;SDS011;12385;51.412;5.540;2023-03-31T09:28:07;30.40;;;3.80;;
24261;SDS011;12385;51.412;5.540;2023-03-31T09:30:41;20.80;;;3.53;;
24261;SDS011;12385;51.412;5.540;2023-03-31T09:33:14;18.77;;;3.60;;
24261;SDS011;12385;51.412;5.540;2023-03-31T09:35:43;18.00;;;3.00;;
24261;SDS011;12385;51.412;5.540;2023-03-31T09:38:12;16.90;;;2.92;;
24261;SDS011;12385;51.412;5.540;2023-03-31T09:40:39;15.80;;;3.17;;
24261;SDS011;12385;51.412;5.540;2023-03-31T09:43:07;17.48;;;3.10;;
24261;SDS011;12385;51.412;5.540;2023-03-31T09:45:42;18.77;;;3.05;;
24261;SDS011;12385;51.412;5.540;2023-03-31T09:48:10;19.48;;;3.55;;
24261;SDS011;12385;51.412;5.540;2023-03-31T09:50:40;18.25;;;3.03;;
24261;SDS011;12385;51.412;5.540;2023-03-31T09:53:23;16.77;;;2.63;;
24261;SDS011;12385;51.412;5.540;2023-03-31T09:56:10;20.55;;;3.00;;
24261;SDS011;12385;51.412;5.540;2023-03-31T09:58:42;14.63;;;2.65;;
24261;SDS011;12385;51.412;5.540;2023-03-31T10:01:13;19.75;;;2.92;;
24261;SDS011;12385;51.412;5.540;2023-03-31T10:03:58;13.43;;;2.40;;
24261;SDS011;12385;51.412;5.540;2023-03-31T10:06:23;17.23;;;2.90;;
24261;SDS011;12385;51.412;5.540;2023-03-31T10:08:51;14.63;;;2.80;;
24261;SDS011;12385;51.412;5.540;2023-03-31T10:13:47;12.95;;;2.38;;
24261;SDS011;12385;51.412;5.540;2023-03-31T10:19:27;13.93;;;2.10;;
24261;SDS011;12385;51.412;5.540;2023-03-31T10:21:59;10.50;;;1.95;;
24261;SDS011;12385;51.412;5.540;2023-03-31T10:24:39;14.60;;;2.10;;
24261;SDS011;12385;51.412;5.540;2023-03-31T10:27:13;9.38;;;2.03;;
24261;SDS011;12385;51.412;5.540;2023-03-31T10:29:55;13.02;;;1.92;;
24261;SDS011;12385;51.412;5.540;2023-03-31T10:34:53;14.25;;;2.17;;
24261;SDS011;12385;51.412;5.540;2023-03-31T10:37:21;10.50;;;1.83;;
24261;SDS011;12385;51.412;5.540;2023-03-31T10:39:59;8.25;;;1.98;;
24261;SDS011;12385;51.412;5.540;2023-03-31T10:42:29;13.07;;;2.58;;
24261;SDS011;12385;51.412;5.540;2023-03-31T10:47:54;11.20;;;2.38;;
24261;SDS011;12385;51.412;5.540;2023-03-31T10:50:25;13.77;;;2.13;;
24261;SDS011;12385;51.412;5.540;2023-03-31T10:53:05;10.85;;;2.35;;
24261;SDS011;12385;51.412;5.540;2023-03-31T10:58:46;10.77;;;2.17;;
24261;SDS011;12385;51.412;5.540;2023-03-31T11:12:13;14.32;;;2.53;;
24261;SDS011;12385;51.412;5.540;2023-03-31T11:20:35;17.65;;;3.22;;
24261;SDS011;12385;51.412;5.540;2023-03-31T11:26:04;21.60;;;3.00;;
24261;SDS011;12385;51.412;5.540;2023-03-31T11:28:40;18.02;;;3.10;;
24261;SDS011;12385;51.412;5.540;2023-03-31T11:34:16;18.20;;;3.35;;
24261;SDS011;12385;51.412;5.540;2023-03-31T11:42:33;15.32;;;3.10;;
24261;SDS011;12385;51.412;5.540;2023-03-31T11:45:31;12.40;;;2.38;;
24261;SDS011;12385;51.412;5.540;2023-03-31T11:48:06;16.13;;;2.85;;
24261;SDS011;12385;51.412;5.540;2023-03-31T11:50:39;16.50;;;2.80;;
24261;SDS011;12385;51.412;5.540;2023-03-31T11:53:15;15.27;;;2.78;;
24261;SDS011;12385;51.412;5.540;2023-03-31T11:55:43;11.50;;;2.47;;
24261;SDS011;12385;51.412;5.540;2023-03-31T11:58:12;12.23;;;2.47;;
24261;SDS011;12385;51.412;5.540;2023-03-31T12:00:40;14.10;;;2.63;;
24261;SDS011;12385;51.412;5.540;2023-03-31T12:03:53;12.13;;;2.60;;
24261;SDS011;12385;51.412;5.540;2023-03-31T12:06:15;16.42;;;2.75;;
24261;SDS011;12385;51.412;5.540;2023-03-31T12:09:02;13.27;;;2.38;;
24261;SDS011;12385;51.412;5.540;2023-03-31T12:11:56;15.70;;;2.85;;
24261;SDS011;12385;51.412;5.540;2023-03-31T12:14:42;12.73;;;2.30;;
24261;SDS011;12385;51.412;5.540;2023-03-31T12:17:27;13.90;;;2.30;;
24261;SDS011;12385;51.412;5.540;2023-03-31T12:19:57;12.32;;;2.50;;
24261;SDS011;12385;51.412;5.540;2023-03-31T12:22:33;18.42;;;2.95;;
24261;SDS011;12385;51.412;5.540;2023-03-31T12:25:04;10.60;;;2.28;;
24261;SDS011;12385;51.412;5.540;2023-03-31T12:27:37;15.48;;;3.30;;
24261;SDS011;12385;51.412;5.540;2023-03-31T12:32:48;12.27;;;2.58;;
24261;SDS011;12385;51.412;5.540;2023-03-31T12:44:01;9.35;;;1.92;;
24261;SDS011;12385;51.412;5.540;2023-03-31T12:49:15;11.60;;;2.28;;
24261;SDS011;12385;51.412;5.540;2023-03-31T12:52:13;10.73;;;2.13;;
24261;SDS011;12385;51.412;5.540;2023-03-31T12:57:14;11.57;;;1.90;;
24261;SDS011;12385;51.412;5.540;2023-03-31T12:59:45;11.45;;;2.47;;
24261;SDS011;12385;51.412;5.540;2023-03-31T13:02:29;13.98;;;2.53;;
24261;SDS011;12385;51.412;5.540;2023-03-31T13:04:55;14.00;;;1.98;;
24261;SDS011;12385;51.412;5.540;2023-03-31T13:09:55;8.48;;;2.00;;
24261;SDS011;12385;51.412;5.540;2023-03-31T13:12:23;12.52;;;2.10;;
24261;SDS011;12385;51.412;5.540;2023-03-31T13:14:52;10.02;;;2.05;;
24261;SDS011;12385;51.412;5.540;2023-03-31T13:22:53;15.65;;;2.22;;
24261;SDS011;12385;51.412;5.540;2023-03-31T13:25:30;10.38;;;2.00;;
24261;SDS011;12385;51.412;5.540;2023-03-31T13:28:43;10.43;;;2.10;;
24261;SDS011;12385;51.412;5.540;2023-03-31T13:31:03;12.57;;;2.42;;
24261;SDS011;12385;51.412;5.540;2023-03-31T13:33:50;19.63;;;2.67;;
24261;SDS011;12385;51.412;5.540;2023-03-31T13:41:27;16.15;;;2.88;;
24261;SDS011;12385;51.412;5.540;2023-03-31T13:46:49;13.10;;;2.63;;
24261;SDS011;12385;51.412;5.540;2023-03-31T13:49:34;12.15;;;2.50;;
24261;SDS011;12385;51.412;5.540;2023-03-31T13:52:23;11.70;;;2.30;;
24261;SDS011;12385;51.412;5.540;2023-03-31T13:55:11;9.60;;;1.92;;
24261;SDS011;12385;51.412;5.540;2023-03-31T14:09:07;10.48;;;1.80;;
24261;SDS011;12385;51.412;5.540;2023-03-31T14:11:36;13.63;;;1.67;;
24261;SDS011;12385;51.412;5.540;2023-03-31T14:14:06;7.40;;;1.45;;
24261;SDS011;12385;51.412;5.540;2023-03-31T14:16:40;8.30;;;1.50;;
24261;SDS011;12385;51.412;5.540;2023-03-31T14:24:40;7.43;;;1.42;;
24261;SDS011;12385;51.412;5.540;2023-03-31T14:37:53;4.60;;;0.90;;
24261;SDS011;12385;51.412;5.540;2023-03-31T14:40:20;2.88;;;0.95;;
24261;SDS011;12385;51.412;5.540;2023-03-31T14:42:46;3.28;;;0.70;;
24261;SDS011;12385;51.412;5.540;2023-03-31T14:45:16;4.65;;;0.82;;
24261;SDS011;12385;51.412;5.540;2023-03-31T14:47:53;3.83;;;0.88;;
24261;SDS011;12385;51.412;5.540;2023-03-31T14:50:43;2.60;;;0.68;;
24261;SDS011;12385;51.412;5.540;2023-03-31T14:53:14;3.42;;;0.63;;
24261;SDS011;12385;51.412;5.540;2023-03-31T14:55:41;3.97;;;0.80;;
24261;SDS011;12385;51.412;5.540;2023-03-31T14:58:12;3.63;;;0.90;;
24261;SDS011;12385;51.412;5.540;2023-03-31T15:00:45;3.15;;;0.73;;
24261;SDS011;12385;51.412;5.540;2023-03-31T15:03:12;5.57;;;0.88;;
24261;SDS011;12385;51.412;5.540;2023-03-31T15:05:40;3.65;;;1.00;;
24261;SDS011;12385;51.412;5.540;2023-03-31T15:08:16;4.47;;;0.73;;
24261;SDS011;12385;51.412;5.540;2023-03-31T15:10:50;3.38;;;0.68;;
24261;SDS011;12385;51.412;5.540;2023-03-31T15:13:19;2.55;;;0.60;;
24261;SDS011;12385;51.412;5.540;2023-03-31T15:15:52;3.90;;;0.63;;
24261;SDS011;12385;51.412;5.540;2023-03-31T15:18:18;2.47;;;0.65;;
24261;SDS011;12385;51.412;5.540;2023-03-31T15:20:44;2.63;;;0.47;;
24261;SDS011;12385;51.412;5.540;2023-03-31T15:23:18;2.97;;;0.63;;
24261;SDS011;12385;51.412;5.540;2023-03-31T15:25:48;2.60;;;0.50;;
24261;SDS011;12385;51.412;5.540;2023-03-31T15:28:18;3.10;;;0.68;;
24261;SDS011;12385;51.412;5.540;2023-03-31T15:30:46;2.72;;;0.75;;
24261;SDS011;12385;51.412;5.540;2023-03-31T15:33:17;4.55;;;1.00;;
24261;SDS011;12385;51.412;5.540;2023-03-31T15:35:48;2.90;;;0.93;;
24261;SDS011;12385;51.412;5.540;2023-03-31T15:38:14;3.22;;;0.68;;
24261;SDS011;12385;51.412;5.540;2023-03-31T15:40:42;2.50;;;0.75;;
24261;SDS011;12385;51.412;5.540;2023-03-31T15:45:51;3.08;;;0.88;;
24261;SDS011;12385;51.412;5.540;2023-03-31T15:48:34;1.48;;;0.63;;
24261;SDS011;12385;51.412;5.540;2023-03-31T15:51:06;1.98;;;0.60;;
24261;SDS011;12385;51.412;5.540;2023-03-31T15:53:48;2.40;;;0.80;;
24261;SDS011;12385;51.412;5.540;2023-03-31T15:56:27;5.22;;;1.08;;
24261;SDS011;12385;51.412;5.540;2023-03-31T16:01:20;3.85;;;0.90;;
24261;SDS011;12385;51.412;5.540;2023-03-31T16:03:50;2.15;;;0.80;;
24261;SDS011;12385;51.412;5.540;2023-03-31T16:09:05;2.85;;;0.85;;
24261;SDS011;12385;51.412;5.540;2023-03-31T16:11:36;2.38;;;0.73;;
24261;SDS011;12385;51.412;5.540;2023-03-31T16:14:19;6.53;;;1.00;;
24261;SDS011;12385;51.412;5.540;2023-03-31T16:16:53;3.35;;;0.90;;
24261;SDS011;12385;51.412;5.540;2023-03-31T16:19:23;3.15;;;0.88;;
24261;SDS011;12385;51.412;5.540;2023-03-31T16:21:52;2.15;;;0.60;;
24261;SDS011;12385;51.412;5.540;2023-03-31T16:24:27;2.80;;;0.68;;
24261;SDS011;12385;51.412;5.540;2023-03-31T16:26:59;3.03;;;0.70;;
24261;SDS011;12385;51.412;5.540;2023-03-31T16:29:30;1.90;;;0.50;;
24261;SDS011;12385;51.412;5.540;2023-03-31T16:32:30;4.30;;;0.90;;
24261;SDS011;12385;51.412;5.540;2023-03-31T16:34:55;2.45;;;0.75;;
24261;SDS011;12385;51.412;5.540;2023-03-31T16:37:23;0.98;;;0.50;;
24261;SDS011;12385;51.412;5.540;2023-03-31T16:39:49;4.47;;;0.80;;
24261;SDS011;12385;51.412;5.540;2023-03-31T16:42:15;3.30;;;0.85;;
24261;SDS011;12385;51.412;5.540;2023-03-31T16:44:43;3.40;;;0.85;;
24261;SDS011;12385;51.412;5.540;2023-03-31T16:47:10;4.65;;;0.70;;
24261;SDS011;12385;51.412;5.540;2023-03-31T16:49:36;1.60;;;0.60;;
24261;SDS011;12385;51.412;5.540;2023-03-31T16:52:02;3.67;;;0.80;;
24261;SDS011;12385;51.412;5.540;2023-03-31T16:54:29;2.67;;;0.60;;
24261;SDS011;12385;51.412;5.540;2023-03-31T16:56:55;3.50;;;0.70;;
24261;SDS011;12385;51.412;5.540;2023-03-31T16:59:21;2.63;;;0.70;;
24261;SDS011;12385;51.412;5.540;2023-03-31T17:01:48;4.30;;;0.90;;
24261;SDS011;12385;51.412;5.540;2023-03-31T17:04:14;5.13;;;0.90;;
24261;SDS011;12385;51.412;5.540;2023-03-31T17:06:40;4.05;;;0.80;;
24261;SDS011;12385;51.412;5.540;2023-03-31T17:09:06;2.30;;;0.70;;
24261;SDS011;12385;51.412;5.540;2023-03-31T17:11:31;5.03;;;0.80;;
24261;SDS011;12385;51.412;5.540;2023-03-31T17:13:57;5.82;;;1.05;;
24261;SDS011;12385;51.412;5.540;2023-03-31T17:16:24;4.72;;;0.75;;
24261;SDS011;12385;51.412;5.540;2023-03-31T17:18:50;4.90;;;1.35;;
24261;SDS011;12385;51.412;5.540;2023-03-31T17:21:17;4.45;;;0.90;;
24261;SDS011;12385;51.412;5.540;2023-03-31T17:23:43;2.28;;;0.80;;
24261;SDS011;12385;51.412;5.540;2023-03-31T17:26:10;6.20;;;1.00;;
24261;SDS011;12385;51.412;5.540;2023-03-31T17:28:38;3.15;;;0.90;;
24261;SDS011;12385;51.412;5.540;2023-03-31T17:31:11;6.07;;;1.00;;
24261;SDS011;12385;51.412;5.540;2023-03-31T17:33:38;2.65;;;0.80;;
24261;SDS011;12385;51.412;5.540;2023-03-31T17:36:04;2.80;;;0.80;;
24261;SDS011;12385;51.412;5.540;2023-03-31T17:38:30;4.22;;;0.80;;